createdAt,value
2023-04-03T00:02:52.631Z,11.80
2023-04-03T00:10:58.183Z,12.57
2023-04-03T00:19:06.575Z,11.88
2023-04-03T00:27:12.415Z,15.70
2023-04-03T00:35:22.124Z,12.93
2023-04-03T00:43:28.981Z,13.70
2023-04-03T00:51:37.389Z,14.73
2023-04-03T00:59:45.955Z,13.88
2023-04-03T01:07:55.330Z,13.52
2023-04-03T01:16:01.354Z,14.20
2023-04-03T01:24:25.869Z,11.70
2023-04-03T01:32:34.095Z,10.43
2023-04-03T01:41:17.113Z,10.20
2023-04-03T01:50:15.274Z,9.85
2023-04-03T01:58:20.971Z,10.50
2023-04-03T02:06:30.870Z,12.05
2023-04-03T02:14:36.700Z,9.73
2023-04-03T02:22:44.804Z,9.52
2023-04-03T02:30:51.050Z,11.98
2023-04-03T02:38:59.606Z,13.02
2023-04-03T02:47:05.293Z,12.98
2023-04-03T02:55:18.772Z,13.23
2023-04-03T03:03:27.158Z,14.50
2023-04-03T03:11:35.774Z,13.70
2023-04-03T03:19:41.765Z,13.45
2023-04-03T03:27:50.018Z,13.77
2023-04-03T03:35:56.433Z,18.52
2023-04-03T03:44:04.476Z,13.65
2023-04-03T03:52:11.972Z,16.25
2023-04-03T04:00:20.837Z,14.73
2023-04-03T04:08:32.138Z,16.38
2023-04-03T04:16:40.557Z,17.38
2023-04-03T04:32:59.246Z,16.73
2023-04-03T04:41:06.029Z,14.13
2023-04-03T04:49:14.288Z,11.05
2023-04-03T04:57:19.765Z,7.50
2023-04-03T05:05:29.122Z,7.72
2023-04-03T05:13:35.082Z,10.00
2023-04-03T05:21:43.516Z,15.30
2023-04-03T05:29:52.702Z,15.65
2023-04-03T05:38:02.985Z,14.70
2023-04-03T05:46:15.401Z,14.15
2023-04-03T05:54:28.693Z,13.32
2023-04-03T06:02:49.520Z,12.85
2023-04-03T06:11:03.450Z,7.65
2023-04-03T06:19:09.300Z,9.05
2023-04-03T06:27:20.819Z,7.97
2023-04-03T06:35:26.606Z,8.13
2023-04-03T06:43:35.025Z,7.05
2023-04-03T06:51:40.917Z,10.82
2023-04-03T06:59:48.934Z,7.63
2023-04-03T07:07:54.414Z,8.27
2023-04-03T07:16:02.638Z,7.28
2023-04-03T07:24:10.120Z,9.13
2023-04-03T07:32:21.713Z,5.30
2023-04-03T07:40:27.200Z,5.88
2023-04-03T07:48:36.213Z,8.30
2023-04-03T07:56:41.628Z,5.57
2023-04-03T08:04:49.937Z,5.22
2023-04-03T08:12:55.796Z,5.95
2023-04-03T08:21:04.064Z,5.70
2023-04-03T08:29:09.536Z,7.22
2023-04-03T08:37:17.581Z,5.90
2023-04-03T08:45:29.415Z,6.40
2023-04-03T08:53:43.976Z,5.70
2023-04-03T09:01:50.132Z,7.40
2023-04-03T09:10:00.788Z,5.55
2023-04-03T09:18:10.742Z,5.15
2023-04-03T09:26:22.260Z,12.00
2023-04-03T09:34:31.004Z,8.07
2023-04-03T09:42:51.833Z,8.40
2023-04-03T09:51:05.632Z,8.02
2023-04-03T09:59:19.906Z,7.93
2023-04-03T10:07:38.345Z,6.18
2023-04-03T10:15:49.602Z,4.40
2023-04-03T10:24:03.615Z,4.68
2023-04-03T10:32:27.018Z,7.80
2023-04-03T10:40:38.986Z,4.60
2023-04-03T10:48:57.639Z,5.63
2023-04-03T10:57:12.404Z,6.93
2023-04-03T11:05:31.147Z,4.35
2023-04-03T11:13:41.973Z,5.85
2023-04-03T11:21:57.460Z,7.07
2023-04-03T11:30:04.462Z,6.28
2023-04-03T11:38:24.125Z,7.78
2023-04-03T11:46:58.281Z,6.90
2023-04-03T11:55:27.042Z,9.30
2023-04-03T12:04:05.184Z,5.95
2023-04-03T12:12:31.848Z,7.43
2023-04-03T12:20:59.599Z,6.00
2023-04-03T12:29:20.179Z,8.35
2023-04-03T12:37:43.665Z,6.05
2023-04-03T12:54:05.560Z,3.78
2023-04-03T13:02:25.519Z,16.98
2023-04-03T13:10:31.179Z,4.03
2023-04-03T13:18:41.300Z,5.43
2023-04-03T13:26:47.437Z,4.22
2023-04-03T13:34:55.794Z,4.47
2023-04-03T13:43:07.467Z,6.47
2023-04-03T13:51:27.322Z,5.72
2023-04-03T13:59:34.318Z,5.97
2023-04-03T14:07:42.338Z,6.70
2023-04-03T14:15:52.385Z,8.90
2023-04-03T14:24:01.129Z,8.35
2023-04-03T14:32:14.772Z,7.97
2023-04-03T14:40:26.539Z,10.07
2023-04-03T14:48:34.448Z,8.35
2023-04-03T14:56:42.602Z,9.65
2023-04-03T15:04:48.189Z,8.25
2023-04-03T15:12:57.125Z,6.55
2023-04-03T15:21:02.957Z,8.10
2023-04-03T15:29:11.230Z,8.20
2023-04-03T15:37:17.018Z,8.10
2023-04-03T15:45:25.683Z,9.27
2023-04-03T15:53:33.602Z,9.63
2023-04-03T16:01:43.607Z,7.38
2023-04-03T16:09:49.230Z,8.75
2023-04-03T16:17:58.310Z,9.07
2023-04-03T16:26:18.906Z,8.18
2023-04-03T16:34:24.550Z,10.63
2023-04-03T16:42:32.628Z,9.10
2023-04-03T16:50:38.135Z,9.07
2023-04-03T16:58:46.353Z,12.50
2023-04-03T17:06:52.808Z,10.02
2023-04-03T17:15:00.837Z,10.48
2023-04-03T17:23:06.348Z,7.88
2023-04-03T17:31:14.381Z,8.30
2023-04-03T17:39:19.871Z,8.73
2023-04-03T17:47:28.833Z,7.78
2023-04-03T17:55:34.486Z,7.53
2023-04-03T18:03:42.817Z,6.30
2023-04-03T18:11:49.232Z,7.65
2023-04-03T18:19:57.355Z,5.13
2023-04-03T18:28:06.630Z,8.25
2023-04-03T18:44:41.992Z,9.45
2023-04-03T18:52:51.018Z,6.80
2023-04-03T19:00:56.599Z,7.05
2023-04-03T19:09:06.781Z,8.80
2023-04-03T19:17:12.368Z,8.38
2023-04-03T19:25:20.735Z,7.93
2023-04-03T19:33:26.395Z,6.25
2023-04-03T19:41:36.886Z,5.88
2023-04-03T19:49:42.792Z,6.63
2023-04-03T19:57:51.046Z,7.32
2023-04-03T20:05:58.024Z,7.45
2023-04-03T20:14:09.269Z,6.43
2023-04-03T20:22:15.211Z,8.77
2023-04-03T20:30:23.410Z,7.53
2023-04-03T20:38:29.037Z,8.48
2023-04-03T20:46:51.371Z,5.38
2023-04-03T20:55:00.535Z,6.55
2023-04-03T21:03:08.790Z,5.97
2023-04-03T21:11:46.156Z,5.93
2023-04-03T21:19:54.625Z,8.68
2023-04-03T21:28:00.328Z,8.40
2023-04-03T21:36:09.425Z,6.22
2023-04-03T21:44:14.911Z,4.72
2023-04-03T21:52:23.191Z,4.45
2023-04-03T22:00:28.843Z,4.75
2023-04-03T22:08:37.055Z,4.53
2023-04-03T22:16:46.351Z,5.18
2023-04-03T22:24:55.840Z,3.85
2023-04-03T22:33:01.425Z,4.22
2023-04-03T22:41:10.873Z,3.67
2023-04-03T22:49:16.455Z,4.18
2023-04-03T22:57:24.575Z,7.18
2023-04-03T23:05:31.963Z,4.82
2023-04-03T23:13:40.218Z,4.82
2023-04-03T23:21:46.010Z,5.45
2023-04-03T23:29:54.140Z,4.68
2023-04-03T23:37:59.643Z,5.72
2023-04-03T23:46:08.013Z,4.97
2023-04-03T23:54:13.416Z,4.40
